sensor_id;sensor_type;location;lat;lon;timestamp;P1;durP1;ratioP1;P2;durP2;ratioP2
58661;SDS011;44432;49.786;22.760;2024-01-30T00:00:42;148.10;;;48.10;;
58661;SDS011;44432;49.786;22.760;2024-01-30T00:03:33;123.80;;;47.70;;
58661;SDS011;44432;49.786;22.760;2024-01-30T00:06:04;134.50;;;47.80;;
58661;SDS011;44432;49.786;22.760;2024-01-30T00:08:35;160.10;;;49.20;;
58661;SDS011;44432;49.786;22.760;2024-01-30T00:11:06;144.20;;;45.90;;
58661;SDS011;44432;49.786;22.760;2024-01-30T00:13:38;157.40;;;49.80;;
58661;SDS011;44432;49.786;22.760;2024-01-30T00:16:08;123.30;;;47.60;;
58661;SDS011;44432;49.786;22.760;2024-01-30T00:18:48;97.90;;;42.60;;
58661;SDS011;44432;49.786;22.760;2024-01-30T00:21:19;104.80;;;45.40;;
58661;SDS011;44432;49.786;22.760;2024-01-30T00:23:51;95.30;;;45.90;;
58661;SDS011;44432;49.786;22.760;2024-01-30T00:26:22;123.80;;;51.70;;
58661;SDS011;44432;49.786;22.760;2024-01-30T00:28:53;95.10;;;47.90;;
58661;SDS011;44432;49.786;22.760;2024-01-30T00:31:23;107.10;;;47.00;;
58661;SDS011;44432;49.786;22.760;2024-01-30T00:33:55;98.40;;;43.50;;
58661;SDS011;44432;49.786;22.760;2024-01-30T00:36:25;106.10;;;48.80;;
58661;SDS011;44432;49.786;22.760;2024-01-30T00:38:58;136.00;;;46.20;;
58661;SDS011;44432;49.786;22.760;2024-01-30T00:41:28;101.30;;;39.00;;
58661;SDS011;44432;49.786;22.760;2024-01-30T00:43:59;86.60;;;39.20;;
58661;SDS011;44432;49.786;22.760;2024-01-30T00:46:30;84.60;;;39.60;;
58661;SDS011;44432;49.786;22.760;2024-01-30T00:49:01;89.30;;;38.50;;
58661;SDS011;44432;49.786;22.760;2024-01-30T00:51:32;65.70;;;34.40;;
58661;SDS011;44432;49.786;22.760;2024-01-30T00:54:02;70.30;;;35.70;;
58661;SDS011;44432;49.786;22.760;2024-01-30T00:56:34;68.00;;;33.80;;
58661;SDS011;44432;49.786;22.760;2024-01-30T00:59:04;63.00;;;32.80;;
58661;SDS011;44432;49.786;22.760;2024-01-30T01:01:35;57.70;;;32.00;;
58661;SDS011;44432;49.786;22.760;2024-01-30T01:04:06;65.50;;;33.30;;
58661;SDS011;44432;49.786;22.760;2024-01-30T01:06:37;67.70;;;32.50;;
58661;SDS011;44432;49.786;22.760;2024-01-30T01:09:10;68.80;;;33.70;;
58661;SDS011;44432;49.786;22.760;2024-01-30T01:11:41;69.50;;;32.90;;
58661;SDS011;44432;49.786;22.760;2024-01-30T01:14:12;60.70;;;32.00;;
58661;SDS011;44432;49.786;22.760;2024-01-30T01:16:42;79.60;;;34.20;;
58661;SDS011;44432;49.786;22.760;2024-01-30T01:19:13;62.90;;;32.50;;
58661;SDS011;44432;49.786;22.760;2024-01-30T01:21:44;67.60;;;32.70;;
58661;SDS011;44432;49.786;22.760;2024-01-30T01:24:14;68.00;;;32.90;;
58661;SDS011;44432;49.786;22.760;2024-01-30T01:26:45;67.30;;;33.20;;
58661;SDS011;44432;49.786;22.760;2024-01-30T01:29:16;77.80;;;33.90;;
58661;SDS011;44432;49.786;22.760;2024-01-30T01:31:48;72.00;;;33.10;;
58661;SDS011;44432;49.786;22.760;2024-01-30T01:34:19;70.40;;;32.60;;
58661;SDS011;44432;49.786;22.760;2024-01-30T01:36:50;71.90;;;32.40;;
58661;SDS011;44432;49.786;22.760;2024-01-30T01:39:23;74.10;;;33.30;;
58661;SDS011;44432;49.786;22.760;2024-01-30T01:41:54;62.90;;;32.20;;
58661;SDS011;44432;49.786;22.760;2024-01-30T01:44:24;68.70;;;34.80;;
58661;SDS011;44432;49.786;22.760;2024-01-30T01:46:55;63.60;;;33.60;;
58661;SDS011;44432;49.786;22.760;2024-01-30T01:49:27;66.50;;;32.30;;
58661;SDS011;44432;49.786;22.760;2024-01-30T01:51:58;71.70;;;32.90;;
58661;SDS011;44432;49.786;22.760;2024-01-30T01:54:29;65.10;;;32.40;;
58661;SDS011;44432;49.786;22.760;2024-01-30T01:57:01;73.00;;;34.60;;
58661;SDS011;44432;49.786;22.760;2024-01-30T01:59:32;65.60;;;34.90;;
58661;SDS011;44432;49.786;22.760;2024-01-30T02:02:03;62.20;;;33.90;;
58661;SDS011;44432;49.786;22.760;2024-01-30T02:04:36;58.50;;;32.40;;
58661;SDS011;44432;49.786;22.760;2024-01-30T02:07:07;59.10;;;32.40;;
58661;SDS011;44432;49.786;22.760;2024-01-30T02:09:38;55.30;;;30.20;;
58661;SDS011;44432;49.786;22.760;2024-01-30T02:12:09;53.10;;;29.50;;
58661;SDS011;44432;49.786;22.760;2024-01-30T02:14:45;57.80;;;31.40;;
58661;SDS011;44432;49.786;22.760;2024-01-30T02:17:16;58.50;;;31.00;;
58661;SDS011;44432;49.786;22.760;2024-01-30T02:19:47;62.00;;;32.80;;
58661;SDS011;44432;49.786;22.760;2024-01-30T02:22:18;58.80;;;30.70;;
58661;SDS011;44432;49.786;22.760;2024-01-30T02:24:49;59.30;;;32.00;;
58661;SDS011;44432;49.786;22.760;2024-01-30T02:27:20;55.40;;;30.60;;
58661;SDS011;44432;49.786;22.760;2024-01-30T02:29:51;59.00;;;31.40;;
58661;SDS011;44432;49.786;22.760;2024-01-30T02:32:22;51.40;;;28.80;;
58661;SDS011;44432;49.786;22.760;2024-01-30T02:34:53;60.30;;;31.70;;
58661;SDS011;44432;49.786;22.760;2024-01-30T02:37:23;57.10;;;30.40;;
58661;SDS011;44432;49.786;22.760;2024-01-30T02:39:54;55.40;;;29.70;;
58661;SDS011;44432;49.786;22.760;2024-01-30T02:42:25;65.10;;;33.60;;
58661;SDS011;44432;49.786;22.760;2024-01-30T02:44:55;56.70;;;30.50;;
58661;SDS011;44432;49.786;22.760;2024-01-30T02:47:26;58.60;;;30.20;;
58661;SDS011;44432;49.786;22.760;2024-01-30T02:49:57;57.80;;;30.70;;
58661;SDS011;44432;49.786;22.760;2024-01-30T02:52:28;60.90;;;31.80;;
58661;SDS011;44432;49.786;22.760;2024-01-30T02:54:59;51.80;;;30.90;;
58661;SDS011;44432;49.786;22.760;2024-01-30T02:57:30;56.20;;;30.80;;
58661;SDS011;44432;49.786;22.760;2024-01-30T03:00:00;58.10;;;31.70;;
58661;SDS011;44432;49.786;22.760;2024-01-30T03:02:34;53.50;;;29.80;;
58661;SDS011;44432;49.786;22.760;2024-01-30T03:05:05;58.50;;;30.30;;
58661;SDS011;44432;49.786;22.760;2024-01-30T03:07:36;62.40;;;31.90;;
58661;SDS011;44432;49.786;22.760;2024-01-30T03:10:07;57.10;;;30.90;;
58661;SDS011;44432;49.786;22.760;2024-01-30T03:12:38;60.40;;;31.80;;
58661;SDS011;44432;49.786;22.760;2024-01-30T03:15:09;57.10;;;31.80;;
58661;SDS011;44432;49.786;22.760;2024-01-30T03:17:40;60.10;;;31.30;;
58661;SDS011;44432;49.786;22.760;2024-01-30T03:20:12;58.50;;;32.20;;
58661;SDS011;44432;49.786;22.760;2024-01-30T03:22:43;59.30;;;31.50;;
58661;SDS011;44432;49.786;22.760;2024-01-30T03:25:14;61.00;;;33.20;;
58661;SDS011;44432;49.786;22.760;2024-01-30T03:27:45;63.90;;;33.00;;
58661;SDS011;44432;49.786;22.760;2024-01-30T03:30:15;65.60;;;31.30;;
58661;SDS011;44432;49.786;22.760;2024-01-30T03:32:46;58.20;;;31.30;;
58661;SDS011;44432;49.786;22.760;2024-01-30T03:35:18;58.00;;;31.40;;
58661;SDS011;44432;49.786;22.760;2024-01-30T03:37:49;58.10;;;31.10;;
58661;SDS011;44432;49.786;22.760;2024-01-30T03:40:19;59.00;;;31.20;;
58661;SDS011;44432;49.786;22.760;2024-01-30T03:42:50;60.00;;;31.20;;
58661;SDS011;44432;49.786;22.760;2024-01-30T03:45:21;59.00;;;31.50;;
58661;SDS011;44432;49.786;22.760;2024-01-30T03:47:52;52.00;;;29.10;;
58661;SDS011;44432;49.786;22.760;2024-01-30T03:50:23;56.10;;;29.60;;
58661;SDS011;44432;49.786;22.760;2024-01-30T03:52:53;49.80;;;28.60;;
58661;SDS011;44432;49.786;22.760;2024-01-30T03:55:24;52.40;;;28.10;;
58661;SDS011;44432;49.786;22.760;2024-01-30T03:57:55;45.50;;;26.90;;
58661;SDS011;44432;49.786;22.760;2024-01-30T04:00:26;49.10;;;27.70;;
58661;SDS011;44432;49.786;22.760;2024-01-30T04:02:56;47.50;;;27.40;;
58661;SDS011;44432;49.786;22.760;2024-01-30T04:05:27;47.30;;;26.80;;
58661;SDS011;44432;49.786;22.760;2024-01-30T04:07:59;47.90;;;26.90;;
58661;SDS011;44432;49.786;22.760;2024-01-30T04:10:29;44.70;;;25.50;;
58661;SDS011;44432;49.786;22.760;2024-01-30T04:13:00;47.90;;;28.40;;
58661;SDS011;44432;49.786;22.760;2024-01-30T04:15:31;53.20;;;28.20;;
58661;SDS011;44432;49.786;22.760;2024-01-30T04:18:02;51.10;;;27.20;;
58661;SDS011;44432;49.786;22.760;2024-01-30T04:20:33;52.40;;;28.30;;
58661;SDS011;44432;49.786;22.760;2024-01-30T04:23:04;56.40;;;30.40;;
58661;SDS011;44432;49.786;22.760;2024-01-30T04:25:35;50.30;;;28.70;;
58661;SDS011;44432;49.786;22.760;2024-01-30T04:28:06;54.10;;;30.00;;
58661;SDS011;44432;49.786;22.760;2024-01-30T04:30:36;52.60;;;29.60;;
58661;SDS011;44432;49.786;22.760;2024-01-30T04:33:07;59.20;;;29.20;;
58661;SDS011;44432;49.786;22.760;2024-01-30T04:35:39;47.20;;;27.90;;
58661;SDS011;44432;49.786;22.760;2024-01-30T04:38:09;49.70;;;28.10;;
58661;SDS011;44432;49.786;22.760;2024-01-30T04:40:41;52.90;;;29.90;;
58661;SDS011;44432;49.786;22.760;2024-01-30T04:43:12;54.20;;;28.50;;
58661;SDS011;44432;49.786;22.760;2024-01-30T04:45:43;50.70;;;29.50;;
58661;SDS011;44432;49.786;22.760;2024-01-30T04:48:14;55.80;;;28.30;;
58661;SDS011;44432;49.786;22.760;2024-01-30T04:50:45;54.80;;;28.60;;
58661;SDS011;44432;49.786;22.760;2024-01-30T04:53:15;52.60;;;29.50;;
58661;SDS011;44432;49.786;22.760;2024-01-30T04:55:46;51.20;;;27.80;;
58661;SDS011;44432;49.786;22.760;2024-01-30T04:58:17;45.40;;;25.70;;
58661;SDS011;44432;49.786;22.760;2024-01-30T05:00:49;45.40;;;25.70;;
58661;SDS011;44432;49.786;22.760;2024-01-30T05:03:20;45.90;;;27.30;;
58661;SDS011;44432;49.786;22.760;2024-01-30T05:05:52;53.30;;;28.20;;
58661;SDS011;44432;49.786;22.760;2024-01-30T05:08:22;52.30;;;29.70;;
58661;SDS011;44432;49.786;22.760;2024-01-30T05:10:53;59.00;;;32.80;;
58661;SDS011;44432;49.786;22.760;2024-01-30T05:13:24;50.20;;;28.30;;
58661;SDS011;44432;49.786;22.760;2024-01-30T05:15:55;49.00;;;28.20;;
58661;SDS011;44432;49.786;22.760;2024-01-30T05:18:25;47.80;;;27.40;;
58661;SDS011;44432;49.786;22.760;2024-01-30T05:20:56;65.30;;;34.20;;
58661;SDS011;44432;49.786;22.760;2024-01-30T05:23:27;48.40;;;27.60;;
58661;SDS011;44432;49.786;22.760;2024-01-30T05:25:59;45.30;;;25.20;;
58661;SDS011;44432;49.786;22.760;2024-01-30T05:28:30;44.90;;;24.90;;
58661;SDS011;44432;49.786;22.760;2024-01-30T05:31:01;40.70;;;25.10;;
58661;SDS011;44432;49.786;22.760;2024-01-30T05:33:32;43.90;;;23.50;;
58661;SDS011;44432;49.786;22.760;2024-01-30T05:36:03;43.30;;;23.40;;
58661;SDS011;44432;49.786;22.760;2024-01-30T05:38:34;41.90;;;25.40;;
58661;SDS011;44432;49.786;22.760;2024-01-30T05:41:05;40.70;;;25.00;;
58661;SDS011;44432;49.786;22.760;2024-01-30T05:43:36;40.90;;;21.90;;
58661;SDS011;44432;49.786;22.760;2024-01-30T05:46:07;37.90;;;22.70;;
58661;SDS011;44432;49.786;22.760;2024-01-30T05:48:38;41.50;;;22.50;;
58661;SDS011;44432;49.786;22.760;2024-01-30T05:51:09;39.40;;;23.20;;
58661;SDS011;44432;49.786;22.760;2024-01-30T05:53:39;41.70;;;24.00;;
58661;SDS011;44432;49.786;22.760;2024-01-30T05:56:10;42.40;;;24.40;;
58661;SDS011;44432;49.786;22.760;2024-01-30T05:58:41;42.20;;;23.80;;
58661;SDS011;44432;49.786;22.760;2024-01-30T06:01:12;44.10;;;25.30;;
58661;SDS011;44432;49.786;22.760;2024-01-30T06:03:43;40.00;;;23.70;;
58661;SDS011;44432;49.786;22.760;2024-01-30T06:06:14;39.10;;;23.10;;
58661;SDS011;44432;49.786;22.760;2024-01-30T06:08:44;41.80;;;25.80;;
58661;SDS011;44432;49.786;22.760;2024-01-30T06:11:15;47.00;;;27.60;;
58661;SDS011;44432;49.786;22.760;2024-01-30T06:13:46;44.00;;;27.10;;
58661;SDS011;44432;49.786;22.760;2024-01-30T06:16:17;45.30;;;25.70;;
58661;SDS011;44432;49.786;22.760;2024-01-30T06:18:49;52.50;;;27.50;;
58661;SDS011;44432;49.786;22.760;2024-01-30T06:21:20;56.50;;;33.50;;
58661;SDS011;44432;49.786;22.760;2024-01-30T06:23:51;51.50;;;29.40;;
58661;SDS011;44432;49.786;22.760;2024-01-30T06:26:21;42.70;;;26.10;;
58661;SDS011;44432;49.786;22.760;2024-01-30T06:28:53;41.60;;;23.80;;
58661;SDS011;44432;49.786;22.760;2024-01-30T06:31:23;43.10;;;24.10;;
58661;SDS011;44432;49.786;22.760;2024-01-30T06:33:54;37.10;;;22.40;;
58661;SDS011;44432;49.786;22.760;2024-01-30T06:36:25;44.40;;;25.70;;
58661;SDS011;44432;49.786;22.760;2024-01-30T06:38:56;40.40;;;24.80;;
58661;SDS011;44432;49.786;22.760;2024-01-30T06:41:27;49.40;;;29.00;;
58661;SDS011;44432;49.786;22.760;2024-01-30T06:43:58;55.40;;;32.10;;
58661;SDS011;44432;49.786;22.760;2024-01-30T06:46:30;65.50;;;36.40;;
58661;SDS011;44432;49.786;22.760;2024-01-30T06:49:02;71.30;;;34.70;;
58661;SDS011;44432;49.786;22.760;2024-01-30T06:51:33;64.20;;;37.00;;
58661;SDS011;44432;49.786;22.760;2024-01-30T06:54:04;71.20;;;38.50;;
58661;SDS011;44432;49.786;22.760;2024-01-30T06:56:35;69.20;;;39.30;;
58661;SDS011;44432;49.786;22.760;2024-01-30T06:59:06;71.10;;;39.30;;
58661;SDS011;44432;49.786;22.760;2024-01-30T07:01:37;81.50;;;44.60;;
58661;SDS011;44432;49.786;22.760;2024-01-30T07:04:08;69.40;;;39.00;;
58661;SDS011;44432;49.786;22.760;2024-01-30T07:06:39;57.90;;;33.50;;
58661;SDS011;44432;49.786;22.760;2024-01-30T07:09:10;59.70;;;36.10;;
58661;SDS011;44432;49.786;22.760;2024-01-30T07:11:41;53.60;;;32.80;;
58661;SDS011;44432;49.786;22.760;2024-01-30T07:14:12;58.00;;;34.00;;
58661;SDS011;44432;49.786;22.760;2024-01-30T07:16:43;62.90;;;35.70;;
58661;SDS011;44432;49.786;22.760;2024-01-30T07:19:15;82.00;;;49.30;;
58661;SDS011;44432;49.786;22.760;2024-01-30T07:21:46;78.40;;;44.90;;
58661;SDS011;44432;49.786;22.760;2024-01-30T07:24:17;73.80;;;45.00;;
58661;SDS011;44432;49.786;22.760;2024-01-30T07:26:50;66.20;;;40.50;;
58661;SDS011;44432;49.786;22.760;2024-01-30T07:29:21;73.10;;;43.60;;
58661;SDS011;44432;49.786;22.760;2024-01-30T07:31:52;69.60;;;41.70;;
58661;SDS011;44432;49.786;22.760;2024-01-30T07:34:23;61.50;;;37.30;;
58661;SDS011;44432;49.786;22.760;2024-01-30T07:36:55;65.60;;;39.50;;
58661;SDS011;44432;49.786;22.760;2024-01-30T07:39:26;62.20;;;38.20;;
58661;SDS011;44432;49.786;22.760;2024-01-30T07:41:57;74.60;;;43.20;;
58661;SDS011;44432;49.786;22.760;2024-01-30T07:44:28;81.80;;;49.00;;
58661;SDS011;44432;49.786;22.760;2024-01-30T07:46:59;77.00;;;46.60;;
58661;SDS011;44432;49.786;22.760;2024-01-30T07:49:30;86.30;;;53.10;;
58661;SDS011;44432;49.786;22.760;2024-01-30T07:52:01;88.20;;;53.40;;
58661;SDS011;44432;49.786;22.760;2024-01-30T07:54:33;89.00;;;52.80;;
58661;SDS011;44432;49.786;22.760;2024-01-30T07:57:06;83.30;;;46.70;;
58661;SDS011;44432;49.786;22.760;2024-01-30T07:59:37;83.90;;;48.70;;
58661;SDS011;44432;49.786;22.760;2024-01-30T08:02:08;101.50;;;59.60;;
58661;SDS011;44432;49.786;22.760;2024-01-30T08:04:39;106.70;;;63.00;;
58661;SDS011;44432;49.786;22.760;2024-01-30T08:07:10;104.70;;;60.70;;
58661;SDS011;44432;49.786;22.760;2024-01-30T08:09:41;111.50;;;65.70;;
58661;SDS011;44432;49.786;22.760;2024-01-30T08:12:12;128.00;;;76.00;;
58661;SDS011;44432;49.786;22.760;2024-01-30T08:14:43;147.20;;;86.40;;
58661;SDS011;44432;49.786;22.760;2024-01-30T08:17:14;133.40;;;78.80;;
58661;SDS011;44432;49.786;22.760;2024-01-30T08:19:45;137.30;;;81.20;;
58661;SDS011;44432;49.786;22.760;2024-01-30T08:22:16;139.40;;;80.20;;
58661;SDS011;44432;49.786;22.760;2024-01-30T08:24:47;136.20;;;83.20;;
58661;SDS011;44432;49.786;22.760;2024-01-30T08:27:17;135.60;;;80.10;;
58661;SDS011;44432;49.786;22.760;2024-01-30T08:29:48;120.30;;;72.10;;
58661;SDS011;44432;49.786;22.760;2024-01-30T08:32:19;110.80;;;64.90;;
58661;SDS011;44432;49.786;22.760;2024-01-30T08:34:50;119.10;;;68.40;;
58661;SDS011;44432;49.786;22.760;2024-01-30T08:37:21;133.50;;;76.10;;
58661;SDS011;44432;49.786;22.760;2024-01-30T08:39:52;149.70;;;81.60;;
58661;SDS011;44432;49.786;22.760;2024-01-30T08:42:22;159.80;;;95.00;;
58661;SDS011;44432;49.786;22.760;2024-01-30T08:44:53;154.40;;;94.00;;
58661;SDS011;44432;49.786;22.760;2024-01-30T08:47:24;152.00;;;92.30;;
58661;SDS011;44432;49.786;22.760;2024-01-30T08:49:55;155.90;;;96.20;;
58661;SDS011;44432;49.786;22.760;2024-01-30T08:52:26;136.60;;;79.80;;
58661;SDS011;44432;49.786;22.760;2024-01-30T08:54:57;149.20;;;89.00;;
58661;SDS011;44432;49.786;22.760;2024-01-30T08:57:28;137.80;;;86.20;;
58661;SDS011;44432;49.786;22.760;2024-01-30T08:59:59;122.40;;;74.60;;
58661;SDS011;44432;49.786;22.760;2024-01-30T09:02:34;95.20;;;56.70;;
58661;SDS011;44432;49.786;22.760;2024-01-30T09:05:05;88.30;;;52.70;;
58661;SDS011;44432;49.786;22.760;2024-01-30T09:07:36;82.00;;;51.70;;
58661;SDS011;44432;49.786;22.760;2024-01-30T09:10:08;69.70;;;39.40;;
58661;SDS011;44432;49.786;22.760;2024-01-30T09:12:39;70.10;;;42.40;;
58661;SDS011;44432;49.786;22.760;2024-01-30T09:15:10;80.80;;;45.10;;
58661;SDS011;44432;49.786;22.760;2024-01-30T09:17:41;83.90;;;48.30;;
58661;SDS011;44432;49.786;22.760;2024-01-30T09:20:12;87.00;;;47.00;;
58661;SDS011;44432;49.786;22.760;2024-01-30T09:22:43;54.30;;;28.40;;
58661;SDS011;44432;49.786;22.760;2024-01-30T09:25:14;30.90;;;15.40;;
58661;SDS011;44432;49.786;22.760;2024-01-30T09:27:46;38.80;;;20.20;;
58661;SDS011;44432;49.786;22.760;2024-01-30T09:30:18;32.80;;;16.80;;
58661;SDS011;44432;49.786;22.760;2024-01-30T09:32:49;14.50;;;6.90;;
58661;SDS011;44432;49.786;22.760;2024-01-30T09:35:19;17.60;;;7.60;;
58661;SDS011;44432;49.786;22.760;2024-01-30T09:37:50;9.70;;;4.40;;
58661;SDS011;44432;49.786;22.760;2024-01-30T09:40:21;8.00;;;3.10;;
58661;SDS011;44432;49.786;22.760;2024-01-30T09:42:53;18.00;;;6.50;;
58661;SDS011;44432;49.786;22.760;2024-01-30T09:45:25;24.20;;;3.60;;
58661;SDS011;44432;49.786;22.760;2024-01-30T09:47:56;9.50;;;3.40;;
58661;SDS011;44432;49.786;22.760;2024-01-30T09:50:30;13.50;;;7.10;;
58661;SDS011;44432;49.786;22.760;2024-01-30T09:53:04;11.30;;;2.60;;
58661;SDS011;44432;49.786;22.760;2024-01-30T09:55:36;9.60;;;2.60;;
58661;SDS011;44432;49.786;22.760;2024-01-30T09:58:08;19.20;;;3.90;;
58661;SDS011;44432;49.786;22.760;2024-01-30T10:00:41;16.10;;;3.40;;
58661;SDS011;44432;49.786;22.760;2024-01-30T10:03:11;15.10;;;7.00;;
58661;SDS011;44432;49.786;22.760;2024-01-30T10:05:43;28.30;;;5.80;;
58661;SDS011;44432;49.786;22.760;2024-01-30T10:08:21;33.90;;;6.80;;
58661;SDS011;44432;49.786;22.760;2024-01-30T10:10:52;18.30;;;5.20;;
58661;SDS011;44432;49.786;22.760;2024-01-30T10:13:23;13.50;;;4.60;;
58661;SDS011;44432;49.786;22.760;2024-01-30T10:15:54;12.90;;;4.40;;
58661;SDS011;44432;49.786;22.760;2024-01-30T10:18:26;19.10;;;4.60;;
58661;SDS011;44432;49.786;22.760;2024-01-30T10:20:58;17.50;;;3.80;;
58661;SDS011;44432;49.786;22.760;2024-01-30T10:23:30;11.70;;;3.80;;
58661;SDS011;44432;49.786;22.760;2024-01-30T10:26:02;22.10;;;4.70;;
58661;SDS011;44432;49.786;22.760;2024-01-30T10:28:33;26.50;;;6.00;;
58661;SDS011;44432;49.786;22.760;2024-01-30T10:31:04;13.50;;;4.20;;
58661;SDS011;44432;49.786;22.760;2024-01-30T10:33:35;17.40;;;3.50;;
58661;SDS011;44432;49.786;22.760;2024-01-30T10:36:06;11.90;;;4.50;;
58661;SDS011;44432;49.786;22.760;2024-01-30T10:38:37;15.40;;;4.20;;
58661;SDS011;44432;49.786;22.760;2024-01-30T10:43:42;9.80;;;2.90;;
58661;SDS011;44432;49.786;22.760;2024-01-30T10:46:25;15.90;;;4.30;;
58661;SDS011;44432;49.786;22.760;2024-01-30T10:49:01;29.80;;;4.70;;
58661;SDS011;44432;49.786;22.760;2024-01-30T10:51:33;10.30;;;3.10;;
58661;SDS011;44432;49.786;22.760;2024-01-30T10:54:05;15.00;;;3.20;;
58661;SDS011;44432;49.786;22.760;2024-01-30T10:56:37;7.60;;;2.60;;
58661;SDS011;44432;49.786;22.760;2024-01-30T10:59:10;5.40;;;2.40;;
58661;SDS011;44432;49.786;22.760;2024-01-30T11:01:42;9.80;;;3.60;;
58661;SDS011;44432;49.786;22.760;2024-01-30T11:04:14;7.00;;;3.20;;
58661;SDS011;44432;49.786;22.760;2024-01-30T11:06:45;21.90;;;3.50;;
58661;SDS011;44432;49.786;22.760;2024-01-30T11:09:18;7.50;;;2.70;;
58661;SDS011;44432;49.786;22.760;2024-01-30T11:11:50;22.60;;;9.90;;
58661;SDS011;44432;49.786;22.760;2024-01-30T11:14:28;14.00;;;4.00;;
58661;SDS011;44432;49.786;22.760;2024-01-30T11:17:00;8.90;;;2.50;;
58661;SDS011;44432;49.786;22.760;2024-01-30T11:19:32;8.10;;;2.90;;
58661;SDS011;44432;49.786;22.760;2024-01-30T11:22:04;18.90;;;3.50;;
58661;SDS011;44432;49.786;22.760;2024-01-30T11:24:40;15.70;;;3.00;;
58661;SDS011;44432;49.786;22.760;2024-01-30T11:27:11;6.00;;;2.80;;
58661;SDS011;44432;49.786;22.760;2024-01-30T11:29:42;5.00;;;2.20;;
58661;SDS011;44432;49.786;22.760;2024-01-30T11:32:23;7.30;;;2.50;;
58661;SDS011;44432;49.786;22.760;2024-01-30T11:34:54;12.30;;;3.80;;
58661;SDS011;44432;49.786;22.760;2024-01-30T11:37:25;17.60;;;4.00;;
58661;SDS011;44432;49.786;22.760;2024-01-30T11:39:56;8.00;;;3.90;;
58661;SDS011;44432;49.786;22.760;2024-01-30T11:42:28;11.50;;;2.60;;
58661;SDS011;44432;49.786;22.760;2024-01-30T11:45:00;5.80;;;2.80;;
58661;SDS011;44432;49.786;22.760;2024-01-30T11:47:34;17.90;;;7.60;;
58661;SDS011;44432;49.786;22.760;2024-01-30T11:50:06;22.00;;;4.90;;
58661;SDS011;44432;49.786;22.760;2024-01-30T11:52:38;10.70;;;3.10;;
58661;SDS011;44432;49.786;22.760;2024-01-30T11:55:10;17.40;;;3.40;;
58661;SDS011;44432;49.786;22.760;2024-01-30T11:57:43;22.30;;;4.10;;
58661;SDS011;44432;49.786;22.760;2024-01-30T12:00:18;13.40;;;4.10;;
58661;SDS011;44432;49.786;22.760;2024-01-30T12:02:50;18.00;;;4.40;;
58661;SDS011;44432;49.786;22.760;2024-01-30T12:05:24;13.70;;;3.20;;
58661;SDS011;44432;49.786;22.760;2024-01-30T12:07:57;11.70;;;3.40;;
58661;SDS011;44432;49.786;22.760;2024-01-30T12:10:29;11.60;;;4.90;;
58661;SDS011;44432;49.786;22.760;2024-01-30T12:13:07;10.40;;;3.20;;
58661;SDS011;44432;49.786;22.760;2024-01-30T12:15:40;11.90;;;3.60;;
58661;SDS011;44432;49.786;22.760;2024-01-30T12:18:11;8.80;;;3.80;;
58661;SDS011;44432;49.786;22.760;2024-01-30T12:20:42;6.40;;;3.20;;
58661;SDS011;44432;49.786;22.760;2024-01-30T12:23:13;5.40;;;2.90;;
58661;SDS011;44432;49.786;22.760;2024-01-30T12:25:44;16.30;;;5.50;;
58661;SDS011;44432;49.786;22.760;2024-01-30T12:28:15;17.60;;;4.90;;
58661;SDS011;44432;49.786;22.760;2024-01-30T12:30:46;6.60;;;3.90;;
58661;SDS011;44432;49.786;22.760;2024-01-30T12:33:20;7.70;;;3.20;;
58661;SDS011;44432;49.786;22.760;2024-01-30T12:35:50;14.60;;;7.40;;
58661;SDS011;44432;49.786;22.760;2024-01-30T12:38:21;11.00;;;5.90;;
58661;SDS011;44432;49.786;22.760;2024-01-30T12:40:55;9.10;;;3.10;;
58661;SDS011;44432;49.786;22.760;2024-01-30T12:43:26;9.00;;;3.80;;
58661;SDS011;44432;49.786;22.760;2024-01-30T12:45:59;10.80;;;4.60;;
58661;SDS011;44432;49.786;22.760;2024-01-30T12:48:32;9.20;;;3.60;;
58661;SDS011;44432;49.786;22.760;2024-01-30T12:51:03;8.70;;;3.00;;
58661;SDS011;44432;49.786;22.760;2024-01-30T12:53:34;19.60;;;4.20;;
58661;SDS011;44432;49.786;22.760;2024-01-30T12:56:05;13.70;;;4.10;;
58661;SDS011;44432;49.786;22.760;2024-01-30T12:58:37;7.70;;;3.70;;
58661;SDS011;44432;49.786;22.760;2024-01-30T13:01:09;15.70;;;4.70;;
58661;SDS011;44432;49.786;22.760;2024-01-30T13:03:40;6.50;;;2.80;;
58661;SDS011;44432;49.786;22.760;2024-01-30T13:06:11;7.20;;;2.60;;
58661;SDS011;44432;49.786;22.760;2024-01-30T13:08:41;7.70;;;2.60;;
58661;SDS011;44432;49.786;22.760;2024-01-30T13:11:12;12.50;;;3.80;;
58661;SDS011;44432;49.786;22.760;2024-01-30T13:13:43;20.20;;;4.40;;
58661;SDS011;44432;49.786;22.760;2024-01-30T13:16:15;8.80;;;3.40;;
58661;SDS011;44432;49.786;22.760;2024-01-30T13:18:46;12.40;;;3.00;;
58661;SDS011;44432;49.786;22.760;2024-01-30T13:21:17;8.10;;;3.40;;
58661;SDS011;44432;49.786;22.760;2024-01-30T13:23:48;7.60;;;2.80;;
58661;SDS011;44432;49.786;22.760;2024-01-30T13:26:22;20.30;;;6.70;;
58661;SDS011;44432;49.786;22.760;2024-01-30T13:28:53;13.70;;;4.60;;
58661;SDS011;44432;49.786;22.760;2024-01-30T13:31:24;28.20;;;4.60;;
58661;SDS011;44432;49.786;22.760;2024-01-30T13:33:55;11.60;;;3.10;;
58661;SDS011;44432;49.786;22.760;2024-01-30T13:36:26;13.70;;;3.50;;
58661;SDS011;44432;49.786;22.760;2024-01-30T13:38:57;10.00;;;5.00;;
58661;SDS011;44432;49.786;22.760;2024-01-30T13:41:28;7.50;;;3.10;;
58661;SDS011;44432;49.786;22.760;2024-01-30T13:44:00;11.10;;;3.20;;
58661;SDS011;44432;49.786;22.760;2024-01-30T13:46:31;7.70;;;3.80;;
58661;SDS011;44432;49.786;22.760;2024-01-30T13:49:02;23.40;;;9.20;;
58661;SDS011;44432;49.786;22.760;2024-01-30T13:51:33;21.10;;;6.60;;
58661;SDS011;44432;49.786;22.760;2024-01-30T13:54:04;23.00;;;5.50;;
58661;SDS011;44432;49.786;22.760;2024-01-30T13:56:35;20.60;;;4.40;;
58661;SDS011;44432;49.786;22.760;2024-01-30T13:59:06;10.80;;;3.30;;
58661;SDS011;44432;49.786;22.760;2024-01-30T14:01:36;12.60;;;3.00;;
58661;SDS011;44432;49.786;22.760;2024-01-30T14:04:07;12.30;;;3.70;;
58661;SDS011;44432;49.786;22.760;2024-01-30T14:06:39;9.60;;;4.20;;
58661;SDS011;44432;49.786;22.760;2024-01-30T14:09:10;8.40;;;3.10;;
58661;SDS011;44432;49.786;22.760;2024-01-30T14:11:42;10.70;;;3.80;;
58661;SDS011;44432;49.786;22.760;2024-01-30T14:14:13;6.50;;;3.10;;
58661;SDS011;44432;49.786;22.760;2024-01-30T14:16:44;12.70;;;2.90;;
58661;SDS011;44432;49.786;22.760;2024-01-30T14:19:15;14.30;;;3.80;;
58661;SDS011;44432;49.786;22.760;2024-01-30T14:21:46;11.60;;;3.20;;
58661;SDS011;44432;49.786;22.760;2024-01-30T14:24:16;10.80;;;3.40;;
58661;SDS011;44432;49.786;22.760;2024-01-30T14:26:47;6.60;;;2.10;;
58661;SDS011;44432;49.786;22.760;2024-01-30T14:29:18;15.90;;;5.50;;
58661;SDS011;44432;49.786;22.760;2024-01-30T14:31:49;18.20;;;8.70;;
58661;SDS011;44432;49.786;22.760;2024-01-30T14:34:20;17.50;;;7.90;;
58661;SDS011;44432;49.786;22.760;2024-01-30T14:36:51;19.50;;;7.10;;
58661;SDS011;44432;49.786;22.760;2024-01-30T14:39:22;15.40;;;5.70;;